createdAt,value
2022-11-21T00:00:06.987Z,100219.13
2022-11-21T00:04:18.469Z,100223.44
2022-11-21T00:08:30.390Z,100233.13
2022-11-21T00:12:41.877Z,100230.66
2022-11-21T00:16:57.290Z,100230.66
2022-11-21T00:21:12.752Z,100234.31
2022-11-21T00:25:24.227Z,100231.03
2022-11-21T00:29:35.651Z,100225.53
2022-11-21T00:33:47.503Z,100213.00
2022-11-21T00:37:58.967Z,100235.50
2022-11-21T00:42:10.541Z,100237.59
2022-11-21T00:46:21.979Z,100237.97
2022-11-21T00:50:33.502Z,100240.44
2022-11-21T00:54:45.096Z,100230.66
2022-11-21T00:58:56.579Z,100236.59
2022-11-21T01:03:08.132Z,100240.44
2022-11-21T01:07:19.700Z,100246.94
2022-11-21T01:11:31.561Z,100240.00
2022-11-21T01:15:43.107Z,100244.28
2022-11-21T01:19:54.566Z,100233.88
2022-11-21T01:24:06.215Z,100233.03
2022-11-21T01:28:17.642Z,100245.69
2022-11-21T01:32:29.114Z,100245.22
2022-11-21T01:36:40.791Z,100248.28
2022-11-21T01:40:52.252Z,100241.72
2022-11-21T01:45:44.037Z,100240.94
2022-11-21T01:49:56.554Z,100244.81
2022-11-21T01:54:24.221Z,100248.91
2022-11-21T01:58:39.437Z,100251.94
2022-11-21T02:02:56.084Z,100242.34
2022-11-21T02:07:08.648Z,100248.28
2022-11-21T02:11:26.062Z,100247.06
2022-11-21T02:15:37.563Z,100225.22
2022-11-21T02:19:58.322Z,100237.91
2022-11-21T02:24:21.450Z,100243.84
2022-11-21T02:28:33.043Z,100249.34
2022-11-21T02:32:48.952Z,100251.88
2022-11-21T02:37:01.957Z,100243.91
2022-11-21T02:41:26.261Z,100235.50
2022-11-21T02:45:44.899Z,100238.44
2022-11-21T02:50:03.768Z,100237.41
2022-11-21T02:54:15.237Z,100229.81
2022-11-21T02:58:26.714Z,100216.47
2022-11-21T03:02:38.420Z,100214.81
2022-11-21T03:06:49.884Z,100215.38
2022-11-21T03:11:01.357Z,100224.13
2022-11-21T03:15:15.210Z,100196.19
2022-11-21T03:19:26.716Z,100212.63
2022-11-21T03:23:38.239Z,100213.63
2022-11-21T03:27:53.700Z,100219.75
2022-11-21T03:32:05.275Z,100205.09
2022-11-21T03:36:16.787Z,100184.00
2022-11-21T03:40:28.274Z,100200.72
2022-11-21T03:44:39.808Z,100207.31
2022-11-21T03:48:51.289Z,100200.94
2022-11-21T03:53:02.716Z,100205.66
2022-11-21T03:57:14.160Z,100203.84
2022-11-21T04:01:26.106Z,100214.25
2022-11-21T04:05:37.568Z,100215.53
2022-11-21T04:09:49.013Z,100212.69
2022-11-21T04:14:00.522Z,100212.69
2022-11-21T04:18:12.847Z,100212.50
2022-11-21T04:22:24.282Z,100211.41
2022-11-21T04:26:35.698Z,100189.25
2022-11-21T04:30:47.215Z,100209.13
2022-11-21T04:34:58.702Z,100198.28
2022-11-21T04:39:10.187Z,100197.66
2022-11-21T04:43:21.657Z,100198.84
2022-11-21T04:47:36.443Z,100191.06
2022-11-21T04:51:47.868Z,100197.84
2022-11-21T04:56:00.141Z,100182.56
2022-11-21T05:00:17.501Z,100172.13
2022-11-21T05:04:32.434Z,100181.28
2022-11-21T05:08:46.624Z,100180.84
2022-11-21T05:13:20.557Z,100183.31
2022-11-21T05:17:32.027Z,100188.16
2022-11-21T05:21:44.212Z,100191.25
2022-11-21T05:25:55.695Z,100186.97
2022-11-21T05:30:07.819Z,100172.69
2022-11-21T05:34:19.257Z,100171.69
2022-11-21T05:38:30.770Z,100169.84
2022-11-21T05:43:01.419Z,100168.66
2022-11-21T05:47:12.920Z,100169.03
2022-11-21T05:51:24.390Z,100167.56
2022-11-21T05:55:35.883Z,100166.56
2022-11-21T05:59:47.316Z,100162.25
2022-11-21T06:04:01.463Z,100146.53
2022-11-21T06:08:12.946Z,100133.88
2022-11-21T06:12:25.750Z,100128.59
2022-11-21T06:16:37.331Z,100130.41
2022-11-21T06:20:48.920Z,100143.69
2022-11-21T06:25:00.379Z,100132.69
2022-11-21T06:29:12.153Z,100128.22
2022-11-21T06:33:23.666Z,100129.47
2022-11-21T06:37:35.131Z,100124.16
2022-11-21T06:41:51.118Z,100127.66
2022-11-21T06:46:04.101Z,100128.06
2022-11-21T06:50:16.008Z,100114.59
2022-11-21T06:54:27.430Z,100117.06
2022-11-21T06:58:38.850Z,100111.75
2022-11-21T07:02:50.479Z,100116.44
2022-11-21T07:07:01.980Z,100115.81
2022-11-21T07:11:29.824Z,100107.47
2022-11-21T07:15:41.355Z,100101.53
2022-11-21T07:19:52.865Z,100102.16
2022-11-21T07:24:04.831Z,100095.00
2022-11-21T07:28:16.308Z,100100.94
2022-11-21T07:32:28.125Z,100101.59
2022-11-21T07:36:39.604Z,100101.59
2022-11-21T07:40:51.612Z,100110.81
2022-11-21T07:45:04.044Z,100092.88
2022-11-21T07:49:15.446Z,100088.56
2022-11-21T07:53:26.872Z,100093.88
2022-11-21T07:57:38.327Z,100064.19
2022-11-21T08:01:51.535Z,100090.50
2022-11-21T08:06:04.560Z,100093.59
2022-11-21T08:10:16.978Z,100078.91
2022-11-21T08:14:28.435Z,100059.06
2022-11-21T08:18:39.845Z,100063.00
2022-11-21T08:22:51.299Z,100079.19
2022-11-21T08:27:02.717Z,100065.09
2022-11-21T08:31:14.155Z,100064.69
2022-11-21T08:35:26.704Z,100061.22
2022-11-21T08:39:38.228Z,100047.38
2022-11-21T08:43:49.641Z,100053.75
2022-11-21T08:48:01.626Z,100050.69
2022-11-21T08:52:13.939Z,100052.28
2022-11-21T08:56:26.199Z,100041.88
2022-11-21T09:00:37.640Z,100030.84
2022-11-21T09:04:49.108Z,100023.69
2022-11-21T09:09:00.593Z,100028.00
2022-11-21T09:13:12.307Z,100025.78
2022-11-21T09:17:43.352Z,100029.50
2022-11-21T09:21:54.980Z,100035.44
2022-11-21T09:26:06.479Z,100025.81
2022-11-21T09:30:18.010Z,100010.47
2022-11-21T09:34:31.671Z,100006.00
2022-11-21T09:38:43.249Z,99999.06
2022-11-21T09:43:32.338Z,99998.09
2022-11-21T09:47:47.541Z,99982.16
2022-11-21T09:52:00.356Z,99972.91
2022-11-21T09:56:16.343Z,99964.34
2022-11-21T10:00:27.931Z,99948.59
2022-11-21T10:04:39.508Z,99948.19
2022-11-21T10:09:09.327Z,99943.91
2022-11-21T10:14:16.303Z,99940.25
2022-11-21T10:18:56.437Z,99940.44
2022-11-21T10:23:13.987Z,99951.09
2022-11-21T10:27:37.217Z,99951.91
2022-11-21T10:31:49.380Z,99947.59
2022-11-21T10:36:26.817Z,99947.19
2022-11-21T10:41:00.584Z,99929.38
2022-11-21T10:45:16.583Z,99916.88
2022-11-21T10:49:32.859Z,99893.94
2022-11-21T10:54:07.590Z,99894.53
2022-11-21T10:58:19.665Z,99897.38
2022-11-21T11:02:31.147Z,99887.34
2022-11-21T11:06:45.445Z,99874.38
2022-11-21T11:11:12.628Z,99870.91
2022-11-21T11:15:26.900Z,99876.19
2022-11-21T11:19:40.285Z,99864.06
2022-11-21T11:23:54.288Z,99861.72
2022-11-21T11:28:09.781Z,99850.38
2022-11-21T11:32:22.249Z,99843.16
2022-11-21T11:36:45.082Z,99846.63
2022-11-21T11:41:03.075Z,99827.06
2022-11-21T11:45:38.273Z,99818.50
2022-11-21T11:50:15.000Z,99807.88
2022-11-21T11:54:38.668Z,99813.72
2022-11-21T11:58:59.963Z,99804.19
2022-11-21T12:03:24.811Z,99791.78
2022-11-21T12:08:38.971Z,99780.69
2022-11-21T12:12:36.188Z,99773.47
2022-11-21T12:16:47.846Z,99758.66
2022-11-21T12:21:09.745Z,99751.06
2022-11-21T12:25:27.295Z,99732.84
2022-11-21T12:30:21.586Z,99736.06
2022-11-21T12:34:57.652Z,99716.38
2022-11-21T12:39:41.449Z,99696.63
2022-11-21T12:44:06.361Z,99689.75
2022-11-21T12:48:58.995Z,99687.53
2022-11-21T12:53:46.936Z,99670.44
2022-11-21T12:58:16.051Z,99674.06
2022-11-21T13:02:33.046Z,99658.03
2022-11-21T13:06:48.165Z,99646.63
2022-11-21T13:11:40.225Z,99638.03
2022-11-21T13:16:03.485Z,99625.94
2022-11-21T13:20:39.536Z,99619.81
2022-11-21T13:24:56.417Z,99608.78
2022-11-21T13:29:15.230Z,99600.97
2022-11-21T13:33:36.213Z,99597.63
2022-11-21T13:38:04.018Z,99577.50
2022-11-21T13:42:34.142Z,99587.38
2022-11-21T13:47:10.609Z,99588.31
2022-11-21T13:51:47.397Z,99583.22
2022-11-21T13:56:06.029Z,99586.13
2022-11-21T14:00:36.688Z,99586.94
2022-11-21T14:04:57.308Z,99568.00
2022-11-21T14:09:30.829Z,99533.38
2022-11-21T14:13:47.707Z,99514.53
2022-11-21T14:18:01.203Z,99500.16
2022-11-21T14:22:45.164Z,99492.16
2022-11-21T14:26:58.506Z,99474.28
2022-11-21T14:31:12.426Z,99491.69
2022-11-21T14:35:24.357Z,99480.19
2022-11-21T14:39:44.719Z,99467.78
2022-11-21T14:43:59.466Z,99472.41
2022-11-21T14:48:12.866Z,99457.44
2022-11-21T14:52:31.662Z,99444.06
2022-11-21T14:56:47.091Z,99448.97
2022-11-21T15:01:04.742Z,99439.88
2022-11-21T15:05:29.194Z,99446.28
2022-11-21T15:14:24.711Z,99429.09
2022-11-21T15:18:37.645Z,99400.91
2022-11-21T15:22:49.967Z,99428.88
2022-11-21T15:27:01.696Z,99418.09
2022-11-21T15:31:21.317Z,99401.84
2022-11-21T15:35:36.126Z,99405.69
2022-11-21T15:39:50.272Z,99377.25
2022-11-21T15:44:02.164Z,99375.25
2022-11-21T15:48:14.030Z,99378.38
2022-11-21T15:52:25.740Z,99367.84
2022-11-21T15:56:37.362Z,99353.47
2022-11-21T16:00:49.546Z,99361.31
2022-11-21T16:05:01.344Z,99349.16
2022-11-21T16:09:13.116Z,99307.16
2022-11-21T16:13:24.703Z,99326.19
2022-11-21T16:17:36.276Z,99315.28
2022-11-21T16:21:47.862Z,99284.31
2022-11-21T16:25:59.688Z,99283.97
2022-11-21T16:30:12.424Z,99277.13
2022-11-21T16:34:24.053Z,99264.03
2022-11-21T16:38:35.729Z,99301.34
2022-11-21T16:42:47.362Z,99275.97
2022-11-21T16:47:02.399Z,99298.44
2022-11-21T16:51:20.193Z,99267.97
2022-11-21T16:55:31.994Z,99270.75
2022-11-21T16:59:43.691Z,99273.28
2022-11-21T17:03:55.440Z,99266.06
2022-11-21T17:08:07.119Z,99252.97
2022-11-21T17:12:18.784Z,99263.75
2022-11-21T17:16:31.359Z,99252.84
2022-11-21T17:20:42.996Z,99245.31
2022-11-21T17:24:55.708Z,99239.88
2022-11-21T17:29:07.404Z,99224.22
2022-11-21T17:33:18.965Z,99201.84
2022-11-21T17:37:30.576Z,99178.69
2022-11-21T17:41:42.191Z,99186.88
2022-11-21T17:46:06.324Z,99188.50
2022-11-21T17:50:21.145Z,99169.13
2022-11-21T17:54:32.830Z,99164.38
2022-11-21T17:58:44.524Z,99144.38
2022-11-21T18:02:56.771Z,99152.09
2022-11-21T18:07:08.485Z,99153.25
2022-11-21T18:11:21.926Z,99156.38
2022-11-21T18:15:34.010Z,99137.38
2022-11-21T18:19:45.713Z,99139.56
2022-11-21T18:23:58.625Z,99154.16
2022-11-21T18:28:10.307Z,99144.66
2022-11-21T18:32:21.943Z,99141.75
2022-11-21T18:36:33.799Z,99157.41
2022-11-21T18:40:45.426Z,99108.75
2022-11-21T18:44:56.989Z,99113.47
2022-11-21T18:49:08.829Z,99099.19
2022-11-21T18:53:20.523Z,99065.50
2022-11-21T18:57:32.059Z,99079.25
2022-11-21T19:01:43.865Z,99064.47
2022-11-21T19:05:55.716Z,99069.88
2022-11-21T19:10:40.837Z,99090.59
2022-11-21T19:14:39.506Z,99077.88
2022-11-21T19:19:18.779Z,99070.69
2022-11-21T19:23:22.985Z,99064.53
2022-11-21T19:27:34.546Z,99057.09
2022-11-21T19:31:46.380Z,99046.13
2022-11-21T19:36:02.967Z,99056.16
2022-11-21T19:40:14.608Z,99038.66
2022-11-21T19:44:26.160Z,99042.00
2022-11-21T19:48:39.467Z,99037.25
2022-11-21T19:52:51.064Z,99028.44
2022-11-21T19:57:02.918Z,99014.66
2022-11-21T20:01:17.133Z,99034.59
2022-11-21T20:05:28.771Z,99012.50
2022-11-21T20:09:42.167Z,99011.44
2022-11-21T20:13:53.835Z,99000.78
2022-11-21T20:18:05.400Z,98988.97
2022-11-21T20:22:17.028Z,98977.00
2022-11-21T20:26:28.773Z,98968.09
2022-11-21T20:30:40.468Z,98968.03
2022-11-21T20:34:52.029Z,98937.88
2022-11-21T20:39:11.668Z,98964.78
2022-11-21T20:43:23.235Z,98937.28
2022-11-21T20:47:37.512Z,98950.00
2022-11-21T20:53:26.400Z,98944.34
2022-11-21T20:56:23.424Z,98945.28
2022-11-21T21:00:35.222Z,98968.34
2022-11-21T21:04:47.045Z,98934.31
2022-11-21T21:08:58.730Z,98931.56
2022-11-21T21:13:11.509Z,98956.88
2022-11-21T21:17:23.170Z,98949.34
2022-11-21T21:21:34.846Z,98954.09
2022-11-21T21:25:46.572Z,98949.50
2022-11-21T21:29:58.271Z,98916.50
2022-11-21T21:34:10.285Z,98945.97
2022-11-21T21:38:22.028Z,98925.00
2022-11-21T21:42:33.677Z,98929.63
2022-11-21T21:46:45.820Z,98910.81
2022-11-21T21:51:04.983Z,98910.47
2022-11-21T21:55:16.847Z,98945.00
2022-11-21T21:59:28.426Z,98900.72
2022-11-21T22:03:41.022Z,98911.53
2022-11-21T22:07:52.730Z,98899.47
2022-11-21T22:12:04.742Z,98899.00
2022-11-21T22:16:16.542Z,98890.91
2022-11-21T22:20:28.357Z,98883.47
2022-11-21T22:24:40.225Z,98885.09
2022-11-21T22:28:52.192Z,98873.38
2022-11-21T22:33:05.249Z,98876.63
2022-11-21T22:37:16.888Z,98867.81
2022-11-21T22:41:28.526Z,98858.03
2022-11-21T22:45:40.266Z,98853.66
2022-11-21T22:49:51.875Z,98850.59
2022-11-21T22:54:03.573Z,98865.84
2022-11-21T22:58:15.200Z,98853.03
2022-11-21T23:02:26.862Z,98834.75
2022-11-21T23:06:38.373Z,98826.66
2022-11-21T23:10:49.967Z,98835.56
2022-11-21T23:15:01.706Z,98836.72
2022-11-21T23:19:13.369Z,98817.88
2022-11-21T23:23:25.516Z,98833.84
2022-11-21T23:27:37.053Z,98822.88
2022-11-21T23:31:48.632Z,98820.47
2022-11-21T23:36:00.409Z,98797.19
2022-11-21T23:40:12.493Z,98815.94
2022-11-21T23:44:24.089Z,98814.88
2022-11-21T23:48:35.737Z,98813.56
2022-11-21T23:52:48.552Z,98805.06
2022-11-21T23:57:00.055Z,98791.38
